Saronic Champion — A8XF5 — position and weather

sailwx.info

Track history (hours):
 
Tides and Currents Weather Stations Pressure Air Temp Water Temp Dewpoint Dewpoint Depression Visibility Wind Speed Wind Dir Waves Ship Positions

Saronic Champion

Last reported at 2016-Jun-30 09:33 UTC. Time now 2016-Jun-30 10:33 UTC.
Position S 01°27' W 056°24'.

Length 229 m; draft 11.6 m.

Type: Cargo ship. MMSI: 636014887.

Date/timePositionNaut miles runAvg speedWind from/ knotsBaromVisibWave heightAir tempDewpointWater temp
2016-Jun-30 09:33S 01°27' W 056°24'0 0.0
2016-Jun-30 08:33S 01°27' W 056°24'0 0.0
2016-Jun-30 07:33S 01°27' W 056°24'0 0.0
2016-Jun-30 06:33S 01°27' W 056°24'0 0.0
2016-Jun-30 05:33S 01°27' W 056°24'0 0.0
2016-Jun-30 04:33S 01°27' W 056°24'0 0.0
2016-Jun-30 03:33S 01°27' W 056°24'0 0.0
2016-Jun-30 02:33S 01°27' W 056°24'0 0.0
2016-Jun-30 01:33S 01°27' W 056°24'0 0.0
2016-Jun-30 00:33S 01°27' W 056°24'0 0.0
2016-Jun-29 23:34S 01°27' W 056°24'0 0.0
2016-Jun-29 22:33S 01°27' W 056°24'1 1.2
2016-Jun-29 21:31S 01°28' W 056°23'0 0.0
2016-Jun-29 20:31S 01°28' W 056°23'0 0.0
2016-Jun-29 19:31S 01°28' W 056°23'0 0.0
2016-Jun-29 18:31S 01°28' W 056°23'0 0.0
2016-Jun-29 17:31S 01°28' W 056°23'0 0.0
2016-Jun-29 16:31S 01°28' W 056°23'0 0.0
2016-Jun-29 15:31S 01°28' W 056°23'0 0.0
2016-Jun-29 14:31S 01°28' W 056°23'0 0.0
2016-Jun-29 13:28S 01°28' W 056°23'0 0.0
2016-Jun-29 12:31S 01°28' W 056°23'1 0.1
2016-Jun-28 16:32S 01°28' W 056°22'0 0.0
2016-Jun-28 15:32S 01°28' W 056°22'  
2016-Jun-25 06:33S 00°12' W 051°17'1111.3
2016-Jun-25 05:33S 00°05' W 051°08'7 6.5
2016-Jun-25 04:33S 00°01' W 051°03'2 2.2
2016-Jun-25 03:29S 00°01' W 051°00'0 0.0
2016-Jun-25 02:29S 00°01' W 051°00'0 0.0
2016-Jun-25 01:32S 00°01' W 051°00'0 0.0
2016-Jun-25 00:32S 00°01' W 051°00'0 0.1
2016-Jun-24 23:32S 00°01' W 051°00'0 0.1
2016-Jun-24 22:32S 00°01' W 051°00'0 0.1
2016-Jun-24 21:29S 00°01' W 051°00'0 0.0
2016-Jun-24 20:29S 00°01' W 051°00'0 0.0
2016-Jun-24 19:29S 00°01' W 051°00'0 0.2
2016-Jun-24 18:29S 00°01' W 051°00'0 0.0
2016-Jun-24 17:29S 00°01' W 051°00'0 0.0
2016-Jun-24 16:29S 00°01' W 051°00'0 0.0
2016-Jun-24 15:29S 00°01' W 051°00'0 0.0
2016-Jun-24 14:32S 00°01' W 051°00'0 0.0
2016-Jun-24 13:32S 00°01' W 051°00'0 0.0
2016-Jun-24 12:32S 00°01' W 051°00'0 0.0
2016-Jun-24 03:26S 00°01' W 051°00'0 0.0
2016-Jun-24 01:26S 00°01' W 051°00'0 0.0
2016-Jun-24 00:32S 00°01' W 051°00'0 0.0
2016-Jun-23 23:32S 00°01' W 051°00'0 0.1
2016-Jun-23 22:32S 00°01' W 051°00'0 0.2
2016-Jun-23 21:32S 00°01' W 051°00'0 0.0
2016-Jun-23 18:05S 00°01' W 051°01'0 0.4
2016-Jun-23 17:29S 00°01' W 051°00'0 0.0
2016-Jun-23 16:29S 00°01' W 051°00'0 0.0
2016-Jun-23 15:29S 00°01' W 051°00'0 0.0
2016-Jun-23 14:29S 00°01' W 051°00'0 0.0
2016-Jun-23 13:29S 00°01' W 051°00'0 0.0
2016-Jun-23 12:29S 00°01' W 051°00'0 0.0
2016-Jun-23 11:29S 00°01' W 051°00'0 0.1
2016-Jun-23 10:32S 00°01' W 051°00'0 0.2
2016-Jun-23 09:32S 00°01' W 051°00'0 0.1
2016-Jun-23 08:32S 00°01' W 051°00'0 0.0
2016-Jun-23 07:32S 00°01' W 051°00'0 0.1
2016-Jun-23 05:32S 00°01' W 051°00'0 0.0
2016-Jun-23 04:32S 00°01' W 051°00'0 0.0
2016-Jun-23 03:32S 00°01' W 051°00'0 0.0
2016-Jun-23 02:32S 00°01' W 051°00'0 0.0
2016-Jun-23 01:32S 00°01' W 051°00'0 0.0
2016-Jun-23 00:32S 00°01' W 051°00'0 0.0
2016-Jun-22 23:32S 00°01' W 051°00'0 0.0
2016-Jun-22 22:32S 00°01' W 051°00'0 0.2
2016-Jun-22 21:32S 00°01' W 051°00'0 0.1
2016-Jun-22 20:29S 00°01' W 051°00'0 0.0
2016-Jun-22 19:29S 00°01' W 051°00'0 0.0
2016-Jun-22 18:20S 00°01' W 051°00'0 0.2
2016-Jun-22 17:32S 00°01' W 051°00'0 0.1
2016-Jun-22 16:32S 00°01' W 051°00'0 0.0
2016-Jun-22 15:29S 00°01' W 051°00'0 0.0
2016-Jun-22 14:17S 00°01' W 051°00'0 0.0
2016-Jun-22 13:29S 00°01' W 051°00'0 0.0
2016-Jun-22 12:29S 00°01' W 051°00'0 0.0
2016-Jun-22 11:29S 00°01' W 051°00'0 0.0
2016-Jun-22 10:23S 00°01' W 051°00'0 0.1
2016-Jun-22 09:29S 00°01' W 051°00'0 0.2
2016-Jun-22 08:29S 00°01' W 051°00'0 0.1
2016-Jun-22 07:29S 00°01' W 051°00'0 0.0
2016-Jun-22 06:29S 00°01' W 051°00'0 0.2
2016-Jun-22 05:29S 00°01' W 051°00'0 0.1
2016-Jun-22 04:29S 00°01' W 051°00'0 0.0
2016-Jun-22 03:29S 00°01' W 051°00'0 0.0
2016-Jun-21 23:32S 00°01' W 051°00'0 0.1
2016-Jun-21 22:29S 00°01' W 051°00'0 0.0
2016-Jun-21 21:29S 00°01' W 051°00'0 0.2
2016-Jun-21 20:32S 00°01' W 051°00'0 0.1
2016-Jun-21 19:32S 00°01' W 051°00'0 0.0
2016-Jun-21 18:25S 00°01' W 051°00'0 0.0
2016-Jun-21 17:32S 00°01' W 051°00'0 0.2
2016-Jun-21 16:31S 00°01' W 051°00'0 0.1
2016-Jun-21 15:32S 00°01' W 051°00'0 0.0
2016-Jun-21 14:32S 00°01' W 051°00'0 0.0
2016-Jun-21 13:31S 00°01' W 051°00'0 0.0
2016-Jun-21 12:32S 00°01' W 051°00'0 0.0
2016-Jun-21 11:14S 00°01' W 051°00'0 0.0
2016-Jun-21 10:32S 00°01' W 051°00'0 0.0
2016-Jun-21 09:31S 00°01' W 051°00'0 0.2
2016-Jun-21 08:31S 00°01' W 051°00'0 0.1
2016-Jun-21 07:31S 00°01' W 051°00'0 0.1
2016-Jun-21 04:31S 00°01' W 051°00'0 0.1
2016-Jun-21 03:31S 00°01' W 051°00'0 0.0
2016-Jun-21 02:31S 00°01' W 051°00'0 0.0
2016-Jun-21 01:31S 00°01' W 051°00'0 0.0
2016-Jun-21 00:32S 00°01' W 051°00'0 0.0
2016-Jun-20 23:31S 00°01' W 051°00'0 0.0
2016-Jun-20 22:31S 00°01' W 051°00'0 0.0
2016-Jun-20 21:31S 00°01' W 051°00'0 0.1
2016-Jun-20 20:31S 00°01' W 051°00'0 0.2
2016-Jun-20 19:31S 00°01' W 051°00'0 0.1
2016-Jun-20 18:31S 00°01' W 051°00'0 0.0
2016-Jun-20 17:31S 00°01' W 051°00'0 0.0
2016-Jun-20 16:31S 00°01' W 051°00'0 0.2
2016-Jun-20 15:25S 00°01' W 051°00'0 0.0
2016-Jun-20 14:31S 00°01' W 051°00'0 0.0
2016-Jun-20 13:31S 00°01' W 051°00'0 0.0
2016-Jun-20 12:31S 00°01' W 051°00'0 0.0
2016-Jun-20 11:31S 00°01' W 051°00'0 0.0
2016-Jun-20 10:31S 00°01' W 051°00'  
Track history (hours):
 
Tides and Currents Weather Stations Pressure Air Temp Water Temp Dewpoint Dewpoint Depression Visibility Wind Speed Wind Dir Waves Ship Positions

Saronic Champion

Last reported at 2016-Jun-30 09:33 UTC. Time now 2016-Jun-30 10:33 UTC.
Position S 01°27' W 056°24'.

Length 229 m; draft 11.6 m.

Type: Cargo ship. MMSI: 636014887.

Date/timePositionNaut miles runAvg speedWind from/ knotsBaromVisibWave heightAir tempDewpointWater temp
2016-Jun-30 09:33S 01°27' W 056°24'0 0.0
2016-Jun-30 08:33S 01°27' W 056°24'0 0.0
2016-Jun-30 07:33S 01°27' W 056°24'0 0.0
2016-Jun-30 06:33S 01°27' W 056°24'0 0.0
2016-Jun-30 05:33S 01°27' W 056°24'0 0.0
2016-Jun-30 04:33S 01°27' W 056°24'0 0.0
2016-Jun-30 03:33S 01°27' W 056°24'0 0.0
2016-Jun-30 02:33S 01°27' W 056°24'0 0.0
2016-Jun-30 01:33S 01°27' W 056°24'0 0.0
2016-Jun-30 00:33S 01°27' W 056°24'0 0.0
2016-Jun-29 23:34S 01°27' W 056°24'0 0.0
2016-Jun-29 22:33S 01°27' W 056°24'1 1.2
2016-Jun-29 21:31S 01°28' W 056°23'0 0.0
2016-Jun-29 20:31S 01°28' W 056°23'0 0.0
2016-Jun-29 19:31S 01°28' W 056°23'0 0.0
2016-Jun-29 18:31S 01°28' W 056°23'0 0.0
2016-Jun-29 17:31S 01°28' W 056°23'0 0.0
2016-Jun-29 16:31S 01°28' W 056°23'0 0.0
2016-Jun-29 15:31S 01°28' W 056°23'0 0.0
2016-Jun-29 14:31S 01°28' W 056°23'0 0.0
2016-Jun-29 13:28S 01°28' W 056°23'0 0.0
2016-Jun-29 12:31S 01°28' W 056°23'1 0.1
2016-Jun-28 16:32S 01°28' W 056°22'0 0.0
2016-Jun-28 15:32S 01°28' W 056°22'  
2016-Jun-25 06:33S 00°12' W 051°17'1111.3
2016-Jun-25 05:33S 00°05' W 051°08'7 6.5
2016-Jun-25 04:33S 00°01' W 051°03'2 2.2
2016-Jun-25 03:29S 00°01' W 051°00'0 0.0
2016-Jun-25 02:29S 00°01' W 051°00'0 0.0
2016-Jun-25 01:32S 00°01' W 051°00'0 0.0
2016-Jun-25 00:32S 00°01' W 051°00'0 0.1
2016-Jun-24 23:32S 00°01' W 051°00'0 0.1
2016-Jun-24 22:32S 00°01' W 051°00'0 0.1
2016-Jun-24 21:29S 00°01' W 051°00'0 0.0
2016-Jun-24 20:29S 00°01' W 051°00'0 0.0
2016-Jun-24 19:29S 00°01' W 051°00'0 0.2
2016-Jun-24 18:29S 00°01' W 051°00'0 0.0
2016-Jun-24 17:29S 00°01' W 051°00'0 0.0
2016-Jun-24 16:29S 00°01' W 051°00'0 0.0
2016-Jun-24 15:29S 00°01' W 051°00'0 0.0
2016-Jun-24 14:32S 00°01' W 051°00'0 0.0
2016-Jun-24 13:32S 00°01' W 051°00'0 0.0
2016-Jun-24 12:32S 00°01' W 051°00'0 0.0
2016-Jun-24 03:26S 00°01' W 051°00'0 0.0
2016-Jun-24 01:26S 00°01' W 051°00'0 0.0
2016-Jun-24 00:32S 00°01' W 051°00'0 0.0
2016-Jun-23 23:32S 00°01' W 051°00'0 0.1
2016-Jun-23 22:32S 00°01' W 051°00'0 0.2
2016-Jun-23 21:32S 00°01' W 051°00'0 0.0
2016-Jun-23 18:05S 00°01' W 051°01'0 0.4
2016-Jun-23 17:29S 00°01' W 051°00'0 0.0
2016-Jun-23 16:29S 00°01' W 051°00'0 0.0
2016-Jun-23 15:29S 00°01' W 051°00'0 0.0
2016-Jun-23 14:29S 00°01' W 051°00'0 0.0
2016-Jun-23 13:29S 00°01' W 051°00'0 0.0
2016-Jun-23 12:29S 00°01' W 051°00'0 0.0
2016-Jun-23 11:29S 00°01' W 051°00'0 0.1
2016-Jun-23 10:32S 00°01' W 051°00'0 0.2
2016-Jun-23 09:32S 00°01' W 051°00'0 0.1
2016-Jun-23 08:32S 00°01' W 051°00'0 0.0
2016-Jun-23 07:32S 00°01' W 051°00'0 0.1
2016-Jun-23 05:32S 00°01' W 051°00'0 0.0
2016-Jun-23 04:32S 00°01' W 051°00'0 0.0
2016-Jun-23 03:32S 00°01' W 051°00'0 0.0
2016-Jun-23 02:32S 00°01' W 051°00'0 0.0
2016-Jun-23 01:32S 00°01' W 051°00'0 0.0
2016-Jun-23 00:32S 00°01' W 051°00'0 0.0
2016-Jun-22 23:32S 00°01' W 051°00'0 0.0
2016-Jun-22 22:32S 00°01' W 051°00'0 0.2
2016-Jun-22 21:32S 00°01' W 051°00'0 0.1
2016-Jun-22 20:29S 00°01' W 051°00'0 0.0
2016-Jun-22 19:29S 00°01' W 051°00'0 0.0
2016-Jun-22 18:20S 00°01' W 051°00'0 0.2
2016-Jun-22 17:32S 00°01' W 051°00'0 0.1
2016-Jun-22 16:32S 00°01' W 051°00'0 0.0
2016-Jun-22 15:29S 00°01' W 051°00'0 0.0
2016-Jun-22 14:17S 00°01' W 051°00'0 0.0
2016-Jun-22 13:29S 00°01' W 051°00'0 0.0
2016-Jun-22 12:29S 00°01' W 051°00'0 0.0
2016-Jun-22 11:29S 00°01' W 051°00'0 0.0
2016-Jun-22 10:23S 00°01' W 051°00'0 0.1
2016-Jun-22 09:29S 00°01' W 051°00'0 0.2
2016-Jun-22 08:29S 00°01' W 051°00'0 0.1
2016-Jun-22 07:29S 00°01' W 051°00'0 0.0
2016-Jun-22 06:29S 00°01' W 051°00'0 0.2
2016-Jun-22 05:29S 00°01' W 051°00'0 0.1
2016-Jun-22 04:29S 00°01' W 051°00'0 0.0
2016-Jun-22 03:29S 00°01' W 051°00'0 0.0
2016-Jun-21 23:32S 00°01' W 051°00'0 0.1
2016-Jun-21 22:29S 00°01' W 051°00'0 0.0
2016-Jun-21 21:29S 00°01' W 051°00'0 0.2
2016-Jun-21 20:32S 00°01' W 051°00'0 0.1
2016-Jun-21 19:32S 00°01' W 051°00'0 0.0
2016-Jun-21 18:25S 00°01' W 051°00'0 0.0
2016-Jun-21 17:32S 00°01' W 051°00'0 0.2
2016-Jun-21 16:31S 00°01' W 051°00'0 0.1
2016-Jun-21 15:32S 00°01' W 051°00'0 0.0
2016-Jun-21 14:32S 00°01' W 051°00'0 0.0
2016-Jun-21 13:31S 00°01' W 051°00'0 0.0
2016-Jun-21 12:32S 00°01' W 051°00'0 0.0
2016-Jun-21 11:14S 00°01' W 051°00'0 0.0
2016-Jun-21 10:32S 00°01' W 051°00'0 0.0
2016-Jun-21 09:31S 00°01' W 051°00'0 0.2
2016-Jun-21 08:31S 00°01' W 051°00'0 0.1
2016-Jun-21 07:31S 00°01' W 051°00'0 0.1
2016-Jun-21 04:31S 00°01' W 051°00'0 0.1
2016-Jun-21 03:31S 00°01' W 051°00'0 0.0
2016-Jun-21 02:31S 00°01' W 051°00'0 0.0
2016-Jun-21 01:31S 00°01' W 051°00'0 0.0
2016-Jun-21 00:32S 00°01' W 051°00'0 0.0
2016-Jun-20 23:31S 00°01' W 051°00'0 0.0
2016-Jun-20 22:31S 00°01' W 051°00'0 0.0
2016-Jun-20 21:31S 00°01' W 051°00'0 0.1
2016-Jun-20 20:31S 00°01' W 051°00'0 0.2
2016-Jun-20 19:31S 00°01' W 051°00'0 0.1
2016-Jun-20 18:31S 00°01' W 051°00'0 0.0
2016-Jun-20 17:31S 00°01' W 051°00'0 0.0
2016-Jun-20 16:31S 00°01' W 051°00'0 0.2
2016-Jun-20 15:25S 00°01' W 051°00'0 0.0
2016-Jun-20 14:31S 00°01' W 051°00'0 0.0
2016-Jun-20 13:31S 00°01' W 051°00'0 0.0
2016-Jun-20 12:31S 00°01' W 051°00'0 0.0
2016-Jun-20 11:31S 00°01' W 051°00'0 0.0
2016-Jun-20 10:31S 00°01' W 051°00'  

Dump ship's entire track history